Time;durP1;ratioP1;P1;durP2;ratioP2;P2;SDS_P1;SDS_P2;PMS_P1;PMS_P2;Temp;Humidity;BMP_temperature;BMP_pressure;BME280_temperature;BME280_humidity;BME280_pressure;Samples;Min_cycle;Max_cycle;Signal;HPM_P1;HPM_P2
2021/12/11 00:01:47;;;;;;;2.13;1.30;;;;;;;3.24;86.43;95646.69;5043896;28;20525;-69
2021/12/11 00:04:16;;;;;;;2.13;1.30;;;;;;;3.21;85.95;95649.56;5030395;28;20204;-71
2021/12/11 00:06:44;;;;;;;3.13;1.43;;;;;;;3.22;86.41;95651.22;5042980;28;20219;-68
2021/12/11 00:09:21;;;;;;;1.33;1.20;;;;;;;3.22;87.55;95656.44;5041948;28;20320;-70
2021/12/11 00:11:51;;;;;;;2.90;1.10;;;;;;;3.25;86.88;95654.41;5038971;28;20238;-70
2021/12/11 00:14:17;;;;;;;1.30;1.10;;;;;;;3.24;87.34;95665.81;5042955;28;20247;-69
2021/12/11 00:16:44;;;;;;;3.27;1.40;;;;;;;3.12;85.80;95668.59;5042712;28;20210;-69
2021/12/11 00:19:14;;;;;;;1.73;1.20;;;;;;;3.20;84.52;95677.44;5039821;28;20217;-67
2021/12/11 00:21:42;;;;;;;1.33;1.00;;;;;;;3.17;85.82;95671.66;5037458;28;20222;-69
2021/12/11 00:24:12;;;;;;;2.00;1.20;;;;;;;3.21;85.96;95673.91;5037787;28;20296;-69
2021/12/11 00:26:42;;;;;;;1.17;1.00;;;;;;;3.33;83.83;95677.31;5037475;28;20214;-67
2021/12/11 00:29:09;;;;;;;2.00;1.60;;;;;;;3.24;84.10;95678.03;5034630;28;20239;-69
2021/12/11 00:31:37;;;;;;;1.23;1.10;;;;;;;3.20;84.71;95681.84;5037309;28;20225;-69
2021/12/11 00:34:04;;;;;;;2.20;1.20;;;;;;;3.21;85.55;95678.28;5038230;28;20297;-67
2021/12/11 00:36:32;;;;;;;1.47;1.30;;;;;;;3.26;84.60;95686.59;5036764;28;20642;-68
2021/12/11 00:39:03;;;;;;;1.90;1.57;;;;;;;3.31;85.32;95684.44;5037140;28;20622;-69
2021/12/11 00:41:33;;;;;;;2.13;1.40;;;;;;;3.32;84.29;95691.31;5037161;28;20254;-67
2021/12/11 00:44:01;;;;;;;2.10;1.33;;;;;;;3.33;84.27;95695.63;5036294;28;20307;-70
2021/12/11 00:46:30;;;;;;;1.93;1.50;;;;;;;3.18;84.57;95695.03;5036421;28;20292;-67
2021/12/11 00:48:56;;;;;;;1.37;1.27;;;;;;;3.22;86.00;95698.25;5036211;28;20213;-69
2021/12/11 00:51:23;;;;;;;3.87;1.43;;;;;;;3.18;86.46;95707.28;5036192;28;20233;-67
2021/12/11 00:53:53;;;;;;;2.20;1.27;;;;;;;3.09;85.64;95710.59;5035979;28;20231;-69
2021/12/11 00:56:22;;;;;;;1.47;1.37;;;;;;;3.07;86.35;95712.50;5022945;28;20537;-69
2021/12/11 00:58:51;;;;;;;2.23;1.43;;;;;;;3.08;86.27;95719.41;5036025;28;20206;-69
2021/12/11 01:01:22;;;;;;;2.73;1.70;;;;;;;3.07;86.63;95728.19;5034306;28;20272;-69
2021/12/11 01:03:52;;;;;;;2.10;1.27;;;;;;;3.17;84.94;95734.34;5036426;28;20203;-69
2021/12/11 01:06:21;;;;;;;2.60;1.40;;;;;;;3.22;86.07;95738.25;5048288;28;20204;-67
2021/12/11 01:08:54;;;;;;;1.77;1.50;;;;;;;3.21;85.87;95740.97;5035866;28;20211;-69
2021/12/11 01:11:23;;;;;;;1.70;1.30;;;;;;;3.16;85.84;95743.94;5033414;28;20223;-69
2021/12/11 01:13:54;;;;;;;1.87;1.30;;;;;;;3.11;86.08;95747.88;5035808;28;20225;-67
2021/12/11 01:16:23;;;;;;;2.00;1.20;;;;;;;3.12;85.97;95754.78;5036411;28;20215;-69
2021/12/11 01:18:56;;;;;;;2.40;1.47;;;;;;;3.05;85.50;95750.97;5035941;28;20211;-69
2021/12/11 01:21:42;;;;;;;3.50;1.30;;;;;;;3.00;86.41;95754.78;5033319;28;20202;-72
2021/12/11 01:24:15;;;;;;;1.63;1.20;;;;;;;3.03;87.09;95751.09;5035088;28;20206;-70
2021/12/11 01:26:46;;;;;;;2.73;1.60;;;;;;;2.97;87.21;95760.25;5035928;28;20720;-67
2021/12/11 01:29:13;;;;;;;3.27;1.20;;;;;;;2.87;87.35;95761.88;5023574;28;20272;-69
2021/12/11 01:31:41;;;;;;;3.83;1.30;;;;;;;3.01;86.02;95761.63;5039896;28;20234;-67
2021/12/11 01:34:10;;;;;;;2.30;1.30;;;;;;;3.05;85.54;95770.06;5041719;28;20214;-67
2021/12/11 01:36:36;;;;;;;1.43;0.90;;;;;;;3.07;86.59;95772.56;5023762;28;20234;-68
2021/12/11 01:39:08;;;;;;;2.53;1.20;;;;;;;3.06;86.69;95781.34;5020978;28;20218;-71
2021/12/11 01:41:35;;;;;;;1.23;1.13;;;;;;;3.12;86.31;95792.16;5026519;28;20246;-69
2021/12/11 01:44:08;;;;;;;4.20;1.80;;;;;;;2.96;85.02;95783.84;5042169;28;20195;-70
2021/12/11 01:46:35;;;;;;;1.53;1.43;;;;;;;3.02;85.89;95788.59;5042626;28;20182;-69
2021/12/11 01:49:07;;;;;;;2.40;1.47;;;;;;;3.04;84.66;95794.53;5032690;28;20233;-68
2021/12/11 01:51:37;;;;;;;4.50;1.40;;;;;;;3.00;84.67;95796.56;5039700;28;20218;-67
2021/12/11 01:54:11;;;;;;;2.20;1.00;;;;;;;3.01;84.87;95803.41;5039629;28;20234;-69
2021/12/11 01:56:38;;;;;;;1.63;1.00;;;;;;;3.15;84.64;95805.00;5028889;28;20634;-68
2021/12/11 01:59:09;;;;;;;2.27;1.30;;;;;;;3.11;84.43;95808.78;5039379;28;20207;-69
2021/12/11 02:01:39;;;;;;;2.00;1.00;;;;;;;3.22;82.76;95813.19;5032351;28;20651;-68
2021/12/11 02:04:09;;;;;;;2.47;1.00;;;;;;;3.14;83.13;95820.78;5019770;28;20203;-66
2021/12/11 02:06:37;;;;;;;1.53;1.37;;;;;;;3.20;82.49;95828.13;5051864;28;20218;-69
2021/12/11 02:09:11;;;;;;;2.50;1.20;;;;;;;3.29;82.26;95832.66;5039329;28;20210;-69
2021/12/11 02:11:38;;;;;;;4.57;1.53;;;;;;;3.23;82.68;95823.50;5030721;28;20219;-70
2021/12/11 02:14:06;;;;;;;2.27;1.20;;;;;;;3.23;82.82;95833.13;5022675;28;20214;-69
2021/12/11 02:16:42;;;;;;;3.13;1.03;;;;;;;3.30;82.51;95837.75;5040325;28;20225;-69
2021/12/11 02:19:15;;;;;;;3.43;1.10;;;;;;;3.19;83.69;95842.16;5039809;28;20213;-70
2021/12/11 02:21:50;;;;;;;3.40;1.27;;;;;;;3.16;84.23;95837.97;5040599;28;20199;-70
2021/12/11 02:24:21;;;;;;;2.97;1.50;;;;;;;3.14;84.12;95844.28;5039602;28;20209;-68
2021/12/11 02:26:48;;;;;;;2.33;0.90;;;;;;;3.18;83.53;95845.72;5040372;28;20222;-67
2021/12/11 02:29:17;;;;;;;4.33;1.30;;;;;;;3.12;84.75;95849.59;5040779;28;20584;-68
2021/12/11 02:31:48;;;;;;;2.23;0.90;;;;;;;3.10;85.42;95848.91;5038597;28;20225;-69
2021/12/11 02:34:19;;;;;;;1.67;1.00;;;;;;;3.10;85.82;95850.69;5039225;28;20204;-70
2021/12/11 02:36:51;;;;;;;4.10;0.90;;;;;;;3.12;85.63;95846.19;5038925;28;20220;-70
2021/12/11 02:39:22;;;;;;;1.47;1.37;;;;;;;3.11;85.71;95854.97;5039490;28;20206;-70
2021/12/11 02:41:53;;;;;;;2.27;1.23;;;;;;;3.11;84.82;95854.97;5037908;28;20693;-71
2021/12/11 02:44:24;;;;;;;3.00;1.20;;;;;;;3.05;85.11;95861.47;5040413;28;20203;-69
2021/12/11 02:46:55;;;;;;;1.53;1.03;;;;;;;3.05;85.15;95861.47;5039204;28;20618;-70
2021/12/11 02:49:24;;;;;;;2.83;0.90;;;;;;;3.09;86.39;95864.69;5037630;28;20221;-70
2021/12/11 02:51:57;;;;;;;2.37;1.33;;;;;;;3.06;86.94;95864.91;5035907;28;20623;-71
2021/12/11 02:54:27;;;;;;;1.10;1.00;;;;;;;3.12;86.12;95861.88;5039208;28;20211;-70
2021/12/11 02:56:57;;;;;;;1.53;0.80;;;;;;;3.13;86.01;95866.13;5029217;28;20211;-70
2021/12/11 02:59:27;;;;;;;3.40;1.43;;;;;;;3.10;84.61;95879.41;5038489;28;20203;-74
2021/12/11 03:01:57;;;;;;;2.33;1.00;;;;;;;3.06;85.97;95884.03;5039013;28;20209;-71
2021/12/11 03:04:31;;;;;;;3.90;1.50;;;;;;;3.10;84.96;95885.47;5041685;28;20533;-70
2021/12/11 03:07:01;;;;;;;2.77;1.20;;;;;;;3.05;85.03;95877.16;5029864;28;20221;-72
2021/12/11 03:09:30;;;;;;;2.20;1.10;;;;;;;3.08;86.25;95889.16;5036944;28;20214;-70
2021/12/11 03:11:58;;;;;;;1.83;1.27;;;;;;;3.05;86.06;95884.97;5037987;28;20238;-68
2021/12/11 03:14:26;;;;;;;1.10;1.00;;;;;;;3.11;85.40;95891.53;5033472;28;20215;-68
2021/12/11 03:16:53;;;;;;;2.73;1.07;;;;;;;3.08;86.02;95897.00;5026484;28;20533;-70
2021/12/11 03:19:23;;;;;;;2.57;1.03;;;;;;;3.09;86.28;95894.25;5020372;28;20215;-68
2021/12/11 03:21:50;;;;;;;1.57;1.40;;;;;;;3.05;85.53;95903.25;5040321;28;20274;-72
2021/12/11 03:24:18;;;;;;;3.77;1.50;;;;;;;2.98;86.60;95902.91;5039909;28;20214;-71
2021/12/11 03:26:48;;;;;;;1.50;1.10;;;;;;;3.09;85.37;95909.09;5039250;28;20211;-70
2021/12/11 03:29:15;;;;;;;3.97;1.10;;;;;;;2.97;86.39;95909.09;5039572;28;20233;-71
2021/12/11 03:31:42;;;;;;;1.13;0.90;;;;;;;3.01;86.38;95910.50;5035769;28;20241;-70
2021/12/11 03:34:11;;;;;;;3.13;1.40;;;;;;;2.99;85.98;95917.63;5026984;28;20630;-71
2021/12/11 03:36:38;;;;;;;2.17;1.20;;;;;;;2.95;85.17;95921.41;5020233;28;20222;-72
2021/12/11 03:39:09;;;;;;;3.30;1.27;;;;;;;2.95;86.21;95929.25;5020848;28;20210;-71
2021/12/11 03:41:37;;;;;;;1.10;1.00;;;;;;;3.00;86.74;95932.34;5035991;28;20258;-71
2021/12/11 03:44:06;;;;;;;1.90;1.23;;;;;;;2.95;86.46;95928.41;5055348;28;20186;-70
2021/12/11 03:46:32;;;;;;;3.90;1.83;;;;;;;2.96;85.48;95940.53;5053372;28;20237;-71
2021/12/11 03:49:02;;;;;;;1.83;1.40;;;;;;;2.88;87.02;95928.03;5035771;28;20268;-71
2021/12/11 03:51:33;;;;;;;1.37;1.27;;;;;;;3.04;86.42;95932.13;5042609;28;20218;-72
2021/12/11 03:54:02;;;;;;;2.47;1.20;;;;;;;3.01;86.96;95944.44;5047288;28;20210;-72
2021/12/11 03:56:29;;;;;;;1.33;1.10;;;;;;;2.98;86.68;95947.28;5049160;28;20222;-72
2021/12/11 03:58:56;;;;;;;3.10;1.83;;;;;;;3.05;85.46;95939.81;5058945;28;20194;-71
2021/12/11 04:01:27;;;;;;;3.33;1.13;;;;;;;3.14;85.33;95954.00;5059540;28;20202;-70
2021/12/11 04:03:56;;;;;;;2.90;0.93;;;;;;;3.07;84.75;95951.00;5059579;28;20178;-69
2021/12/11 04:06:23;;;;;;;3.33;0.70;;;;;;;3.10;85.22;95952.56;5059066;28;20208;-69
2021/12/11 04:08:50;;;;;;;2.20;1.40;;;;;;;3.03;85.92;95956.56;5059782;28;20187;-70
2021/12/11 04:11:19;;;;;;;2.43;1.10;;;;;;;2.91;86.17;95961.75;5059469;28;20210;-70
2021/12/11 04:13:47;;;;;;;1.23;1.07;;;;;;;2.97;87.19;95965.69;5055271;28;20239;-67
2021/12/11 04:16:16;;;;;;;2.90;1.37;;;;;;;2.92;86.71;95967.81;5030624;28;20222;-68
2021/12/11 04:18:43;;;;;;;2.33;1.07;;;;;;;2.93;86.52;95966.88;5032161;28;20209;-71
2021/12/11 04:21:11;;;;;;;3.27;1.10;;;;;;;2.96;86.70;95962.25;5036984;28;20210;-67
2021/12/11 04:23:38;;;;;;;0.93;0.90;;;;;;;3.05;86.24;95959.91;5022178;28;20210;-69
2021/12/11 04:26:05;;;;;;;0.87;0.83;;;;;;;3.05;86.81;95950.28;5017102;28;20212;-68
2021/12/11 04:28:34;;;;;;;2.63;1.10;;;;;;;3.11;86.05;95962.06;5018541;28;20215;-68
2021/12/11 04:31:05;;;;;;;3.70;1.20;;;;;;;3.07;86.37;95956.22;5036281;28;20198;-70
2021/12/11 04:33:38;;;;;;;1.93;0.83;;;;;;;3.10;85.81;95966.44;5032843;28;20249;-68
2021/12/11 04:36:05;;;;;;;0.80;0.77;;;;;;;2.97;86.27;95963.09;5027111;28;20209;-68
2021/12/11 04:38:32;;;;;;;1.50;0.90;;;;;;;2.96;86.66;95969.25;5032968;28;20225;-66
2021/12/11 04:41:00;;;;;;;1.40;1.03;;;;;;;2.96;86.98;95972.69;5026406;28;20229;-68
2021/12/11 04:43:26;;;;;;;3.70;1.40;;;;;;;2.91;88.59;95979.19;5036069;28;20636;-68
2021/12/11 04:45:55;;;;;;;1.27;1.03;;;;;;;2.88;88.46;95993.31;5036327;28;20226;-68
2021/12/11 04:48:32;;;;;;;1.40;1.23;;;;;;;2.93;88.00;95996.44;5036421;28;20309;-70
2021/12/11 04:51:12;;;;;;;2.37;1.00;;;;;;;2.85;87.94;95990.94;5035901;28;20206;-69
2021/12/11 04:53:52;;;;;;;1.60;1.37;;;;;;;2.89;86.97;95992.38;5024633;28;20289;-68
2021/12/11 05:02:10;;;;;;;1.97;1.00;;;;;;;2.94;87.61;96015.56;5031160;28;20269;-70
2021/12/11 05:04:52;;;;;;;1.97;1.20;;;;;;;2.97;86.74;96015.31;5039991;28;20304;-67
2021/12/11 05:07:29;;;;;;;2.60;1.10;;;;;;;2.96;86.42;96021.47;5022079;28;20663;-67
2021/12/11 05:10:01;;;;;;;1.43;1.10;;;;;;;2.92;87.61;96027.88;5016355;28;20268;-68
2021/12/11 05:12:35;;;;;;;1.33;0.87;;;;;;;2.93;86.84;96019.94;5023637;28;20261;-67
2021/12/11 05:15:05;;;;;;;2.53;1.27;;;;;;;2.84;87.42;96019.75;5017463;28;20293;-71
2021/12/11 05:17:32;;;;;;;1.70;1.10;;;;;;;2.87;87.28;96030.00;5017992;28;20214;-69
2021/12/11 05:19:58;;;;;;;2.37;1.13;;;;;;;2.91;87.85;96037.47;5021498;28;20512;-69
2021/12/11 05:22:26;;;;;;;1.87;1.20;;;;;;;2.86;87.65;96036.16;5030899;28;20199;-69
2021/12/11 05:24:55;;;;;;;1.83;1.10;;;;;;;2.91;88.04;96047.91;5016105;28;20222;-71
2021/12/11 05:27:22;;;;;;;1.50;1.40;;;;;;;2.84;88.54;96046.69;5015922;28;20221;-67
2021/12/11 05:29:49;;;;;;;1.20;1.03;;;;;;;2.92;88.62;96060.03;5016185;28;20221;-70
2021/12/11 05:32:21;;;;;;;2.50;1.20;;;;;;;3.01;87.38;96064.59;5027210;28;20210;-69
2021/12/11 05:34:48;;;;;;;3.73;0.90;;;;;;;2.90;86.95;96061.09;5034845;28;20214;-68
2021/12/11 05:37:15;;;;;;;3.83;1.23;;;;;;;2.89;87.39;96068.09;5016094;28;20221;-68
2021/12/11 05:39:43;;;;;;;2.10;1.00;;;;;;;3.02;86.69;96070.66;5015946;28;20218;-69
2021/12/11 05:42:09;;;;;;;1.60;1.17;;;;;;;2.94;87.68;96073.81;5022638;28;20234;-68
2021/12/11 05:44:36;;;;;;;2.83;1.37;;;;;;;2.85;88.15;96079.72;5023636;28;20230;-68
2021/12/11 05:47:05;;;;;;;2.97;1.20;;;;;;;2.87;88.64;96088.25;5021479;28;20639;-69
2021/12/11 05:49:33;;;;;;;2.53;1.30;;;;;;;2.95;88.49;96090.31;5015598;28;20529;-67
2021/12/11 05:52:00;;;;;;;1.40;1.03;;;;;;;2.95;88.15;96090.31;5033506;28;20202;-68
2021/12/11 05:54:28;;;;;;;2.03;1.13;;;;;;;2.90;88.60;96090.66;5034963;28;20242;-69
2021/12/11 05:57:01;;;;;;;1.07;0.83;;;;;;;2.86;87.93;96102.28;5026283;28;20530;-71
2021/12/11 05:59:28;;;;;;;2.10;1.37;;;;;;;2.88;87.70;96102.16;5032395;28;20214;-70
2021/12/11 06:01:58;;;;;;;1.80;1.30;;;;;;;2.89;87.36;96112.50;5015257;28;20205;-70
2021/12/11 06:04:26;;;;;;;1.97;1.13;;;;;;;2.82;88.35;96110.41;5022758;28;20206;-67
2021/12/11 06:06:55;;;;;;;2.27;1.00;;;;;;;2.81;89.15;96114.81;5045309;28;20226;-68
2021/12/11 06:09:25;;;;;;;2.20;1.20;;;;;;;2.85;87.60;96111.03;5035326;28;20234;-67
2021/12/11 06:11:54;;;;;;;1.40;1.07;;;;;;;2.79;88.29;96124.53;5027373;28;20218;-67
2021/12/11 06:14:22;;;;;;;2.50;1.03;;;;;;;2.79;87.60;96116.69;5035474;28;20231;-68
2021/12/11 06:16:53;;;;;;;1.50;1.00;;;;;;;2.99;87.35;96128.34;5038563;28;20236;-70
2021/12/11 06:19:21;;;;;;;1.53;0.93;;;;;;;2.86;87.46;96133.59;5039256;28;20217;-68
2021/12/11 06:21:50;;;;;;;1.37;1.20;;;;;;;2.89;87.65;96138.59;5038653;28;20233;-68
2021/12/11 06:24:17;;;;;;;3.63;1.20;;;;;;;2.87;87.73;96140.47;5039322;28;20221;-69
2021/12/11 06:26:44;;;;;;;1.27;0.70;;;;;;;2.89;88.12;96137.75;5049812;28;20214;-68
2021/12/11 06:29:10;;;;;;;1.03;0.97;;;;;;;2.89;88.32;96143.81;5026029;28;20219;-67
2021/12/11 06:31:38;;;;;;;1.10;1.00;;;;;;;2.82;89.48;96158.25;5039331;28;20222;-71
2021/12/11 06:34:05;;;;;;;1.03;0.83;;;;;;;2.79;89.01;96157.63;5025860;28;20238;-68
2021/12/11 06:36:32;;;;;;;1.93;1.30;;;;;;;2.85;88.83;96162.41;5038841;28;20233;-68
2021/12/11 06:39:01;;;;;;;1.03;0.90;;;;;;;2.95;88.44;96164.28;5038927;28;20228;-69
2021/12/11 06:41:30;;;;;;;1.50;1.13;;;;;;;3.05;87.44;96174.09;5038057;28;20238;-70
2021/12/11 06:43:57;;;;;;;2.03;1.00;;;;;;;2.95;88.07;96182.56;5038825;28;20203;-67
2021/12/11 06:46:24;;;;;;;1.07;0.70;;;;;;;3.00;87.26;96185.69;5038065;28;20620;-71
2021/12/11 06:48:52;;;;;;;0.80;0.80;;;;;;;2.90;88.31;96176.84;5038102;28;20518;-68
2021/12/11 06:51:18;;;;;;;1.30;1.20;;;;;;;2.84;88.04;96190.31;5030444;28;20205;-67
2021/12/11 06:53:48;;;;;;;1.10;1.00;;;;;;;2.78;88.13;96195.97;5028385;28;20253;-69
2021/12/11 06:56:17;;;;;;;1.33;0.80;;;;;;;2.80;88.63;96204.50;5029657;28;20214;-68
2021/12/11 06:58:44;;;;;;;1.67;0.80;;;;;;;2.69;88.73;96209.66;5038339;28;20217;-68
2021/12/11 07:01:12;;;;;;;0.77;0.67;;;;;;;2.64;89.33;96211.75;5033652;28;20210;-67
2021/12/11 07:03:40;;;;;;;0.87;0.87;;;;;;;2.65;89.98;96218.66;5018652;28;20284;-71
2021/12/11 07:06:09;;;;;;;1.00;1.00;;;;;;;2.56;90.24;96221.88;5046761;28;20221;-67
2021/12/11 07:08:38;;;;;;;1.90;0.80;;;;;;;2.61;90.09;96235.44;5038201;28;20205;-68
2021/12/11 07:11:05;;;;;;;1.07;0.93;;;;;;;2.61;90.21;96245.91;5032417;28;20275;-68
2021/12/11 07:13:32;;;;;;;2.07;1.10;;;;;;;2.57;90.45;96241.81;5023880;28;20911;-69
2021/12/11 07:15:59;;;;;;;0.67;0.67;;;;;;;2.55;90.78;96243.69;5033687;28;20226;-69
2021/12/11 07:18:27;;;;;;;1.97;1.30;;;;;;;2.50;91.17;96248.38;5026000;28;20220;-68
2021/12/11 07:20:54;;;;;;;1.60;1.23;;;;;;;2.43;91.86;96268.00;5026137;28;20207;-69
2021/12/11 07:23:22;;;;;;;2.73;1.20;;;;;;;2.54;91.20;96268.13;5037524;28;20225;-68
2021/12/11 07:25:51;;;;;;;2.00;1.00;;;;;;;2.45;91.50;96268.72;5025005;28;20208;-67
2021/12/11 07:28:20;;;;;;;0.87;0.87;;;;;;;2.44;91.63;96288.75;5037163;28;20224;-70
2021/12/11 07:30:48;;;;;;;1.77;1.00;;;;;;;2.53;91.66;96284.72;5038509;28;20275;-70
2021/12/11 07:33:16;;;;;;;1.30;1.07;;;;;;;2.44;91.54;96296.59;5038535;28;20214;-70
2021/12/11 07:35:44;;;;;;;1.63;0.90;;;;;;;2.50;91.53;96293.59;5030870;28;20207;-68
2021/12/11 07:38:10;;;;;;;1.40;1.30;;;;;;;2.49;91.36;96301.50;5032659;28;20217;-68
2021/12/11 07:40:41;;;;;;;1.33;1.23;;;;;;;2.47;91.76;96298.19;5038066;28;20226;-68
2021/12/11 07:43:08;;;;;;;1.63;1.33;;;;;;;2.48;91.50;96311.13;5057716;28;20195;-68
2021/12/11 07:45:35;;;;;;;1.27;0.97;;;;;;;2.62;90.75;96317.22;5059966;28;20197;-69
2021/12/11 07:48:02;;;;;;;1.43;1.30;;;;;;;2.64;91.13;96326.59;5046114;28;20508;-70
2021/12/11 07:50:28;;;;;;;1.27;1.00;;;;;;;2.66;90.99;96329.13;5022306;28;20642;-70
2021/12/11 07:52:55;;;;;;;1.70;0.93;;;;;;;2.62;91.66;96345.91;5021898;28;20631;-69
2021/12/11 07:55:22;;;;;;;1.10;1.00;;;;;;;2.66;90.34;96344.78;5017933;28;20238;-70
2021/12/11 07:57:51;;;;;;;0.90;0.90;;;;;;;2.60;91.02;96340.78;5036301;28;20205;-68
2021/12/11 08:00:20;;;;;;;1.10;1.10;;;;;;;2.64;91.48;96346.63;5037469;28;20202;-69
2021/12/11 08:02:47;;;;;;;0.97;0.77;;;;;;;2.62;90.95;96353.75;5028565;28;20288;-68
2021/12/11 08:05:15;;;;;;;0.60;0.60;;;;;;;2.59;91.62;96365.22;5017732;28;20535;-67
2021/12/11 08:07:42;;;;;;;1.07;0.93;;;;;;;2.58;92.49;96368.78;5018453;28;20211;-67
2021/12/11 08:10:12;;;;;;;0.70;0.70;;;;;;;2.62;91.28;96374.63;5017555;28;20215;-67
2021/12/11 08:12:40;;;;;;;0.70;0.70;;;;;;;2.73;90.84;96382.59;5017503;28;20214;-68
2021/12/11 08:15:11;;;;;;;0.90;0.90;;;;;;;2.74;90.18;96377.25;5035323;28;20320;-68
2021/12/11 08:17:39;;;;;;;1.10;1.03;;;;;;;2.76;90.83;96393.69;5033043;28;20221;-70
2021/12/11 08:20:08;;;;;;;1.03;0.90;;;;;;;2.75;91.38;96397.22;5028806;28;20210;-68
2021/12/11 08:22:34;;;;;;;1.80;0.90;;;;;;;2.82;89.82;96398.47;5019228;28;20222;-68
2021/12/11 08:25:01;;;;;;;0.80;0.80;;;;;;;2.83;90.43;96400.16;5020305;28;20222;-68
2021/12/11 08:27:27;;;;;;;0.83;0.73;;;;;;;2.94;89.96;96407.28;5019707;28;20626;-67
2021/12/11 08:29:54;;;;;;;1.40;0.90;;;;;;;2.94;90.37;96402.88;5027893;28;20219;-70
2021/12/11 08:32:24;;;;;;;1.30;1.20;;;;;;;2.95;90.14;96416.75;5034985;28;20218;-70
2021/12/11 08:34:51;;;;;;;0.80;0.80;;;;;;;2.96;90.27;96421.06;5035941;28;20697;-69
2021/12/11 08:37:19;;;;;;;1.13;1.00;;;;;;;2.91;90.51;96426.59;5036388;28;20214;-71
2021/12/11 08:39:45;;;;;;;1.03;1.00;;;;;;;2.89;91.51;96428.47;5035958;28;20534;-68
2021/12/11 08:42:15;;;;;;;1.23;1.10;;;;;;;2.93;90.06;96436.94;5028443;28;20707;-68
2021/12/11 08:44:50;;;;;;;0.83;0.80;;;;;;;2.91;90.55;96437.03;5031951;28;20211;-68
2021/12/11 08:47:17;;;;;;;1.17;0.90;;;;;;;3.06;88.90;96442.16;5036231;28;20206;-70
2021/12/11 08:49:45;;;;;;;1.30;1.13;;;;;;;3.06;88.41;96447.41;5035560;28;20693;-69
2021/12/11 08:52:14;;;;;;;0.97;0.97;;;;;;;3.05;90.31;96459.63;5036111;28;20206;-68
2021/12/11 08:54:41;;;;;;;0.60;0.60;;;;;;;3.11;89.40;96459.22;5035665;28;20237;-66
2021/12/11 08:57:10;;;;;;;1.20;1.10;;;;;;;3.07;88.61;96467.38;5026662;28;20234;-70
2021/12/11 08:59:39;;;;;;;2.07;0.90;;;;;;;3.04;88.71;96470.19;5034572;28;20530;-68
2021/12/11 09:02:09;;;;;;;0.90;0.90;;;;;;;3.14;88.64;96479.06;5036075;28;20217;-68
2021/12/11 09:04:39;;;;;;;0.90;0.90;;;;;;;3.21;88.02;96481.19;5040197;28;20207;-68
2021/12/11 09:07:09;;;;;;;1.50;1.00;;;;;;;3.13;88.83;96482.63;5044190;28;20214;-68
2021/12/11 09:09:41;;;;;;;0.90;0.90;;;;;;;3.16;89.63;96490.25;5035492;28;20199;-68
2021/12/11 09:12:12;;;;;;;1.30;1.20;;;;;;;3.25;89.72;96494.88;5035930;28;20210;-69
2021/12/11 09:14:41;;;;;;;0.90;0.90;;;;;;;3.22;89.29;96495.09;5033161;28;20233;-68
2021/12/11 09:17:11;;;;;;;0.73;0.73;;;;;;;3.21;88.93;96501.25;5036013;28;20207;-67
2021/12/11 09:19:41;;;;;;;1.30;0.87;;;;;;;3.26;88.58;96505.22;5036395;28;20207;-67
2021/12/11 09:22:12;;;;;;;0.93;0.83;;;;;;;3.24;89.82;96514.94;5034320;28;20206;-71
2021/12/11 09:24:42;;;;;;;0.93;0.93;;;;;;;3.34;89.55;96516.00;5016178;28;20204;-71
2021/12/11 09:27:13;;;;;;;0.80;0.80;;;;;;;3.41;87.95;96513.81;5018599;28;20233;-69
2021/12/11 09:29:43;;;;;;;2.43;0.90;;;;;;;3.38;88.49;96522.72;5036061;28;20511;-68
2021/12/11 09:32:15;;;;;;;1.50;0.93;;;;;;;3.42;88.15;96531.19;5034913;28;20211;-69
2021/12/11 09:34:51;;;;;;;0.97;0.97;;;;;;;3.44;87.34;96531.91;5031163;28;20226;-68
2021/12/11 09:37:19;;;;;;;1.53;1.10;;;;;;;3.37;87.77;96546.31;5039982;28;20213;-71
2021/12/11 09:39:49;;;;;;;1.10;1.00;;;;;;;3.35;88.40;96545.59;5040142;28;20213;-68
2021/12/11 09:42:15;;;;;;;1.13;1.07;;;;;;;3.41;87.57;96553.88;5057213;28;20231;-69
2021/12/11 09:44:46;;;;;;;1.10;1.10;;;;;;;3.37;87.57;96562.84;5052869;28;20205;-70
2021/12/11 09:47:16;;;;;;;1.13;1.07;;;;;;;3.32;87.33;96570.16;5033698;28;20201;-68
2021/12/11 09:49:45;;;;;;;1.53;1.03;;;;;;;3.28;88.41;96573.06;5039815;28;20214;-69
2021/12/11 09:52:19;;;;;;;1.13;1.03;;;;;;;3.18;88.86;96578.06;5033039;28;20230;-69
2021/12/11 09:54:48;;;;;;;0.93;0.90;;;;;;;3.10;89.56;96584.72;5040656;28;20225;-69
2021/12/11 09:57:17;;;;;;;1.10;1.10;;;;;;;3.12;90.25;96588.09;5033957;28;20645;-70
2021/12/11 09:59:46;;;;;;;1.70;1.60;;;;;;;3.09;90.00;96588.25;5031485;28;20225;-68
2021/12/11 10:02:16;;;;;;;1.13;1.00;;;;;;;3.15;90.23;96588.72;5040513;28;20221;-67
2021/12/11 10:04:52;;;;;;;1.33;1.23;;;;;;;3.19;90.44;96589.38;5031107;28;20220;-67
2021/12/11 10:07:30;;;;;;;1.10;1.10;;;;;;;3.31;89.49;96601.63;5045232;28;20210;-68
2021/12/11 10:10:16;;;;;;;1.10;1.00;;;;;;;3.35;88.52;96590.03;5039920;28;20218;-68
2021/12/11 10:12:46;;;;;;;1.60;1.07;;;;;;;3.42;87.98;96602.59;5033828;28;20207;-68
2021/12/11 10:15:19;;;;;;;1.03;1.03;;;;;;;3.42;88.21;96602.59;5019442;28;20215;-69
2021/12/11 10:17:48;;;;;;;1.30;1.20;;;;;;;3.53;88.71;96614.13;5026290;28;20233;-71
2021/12/11 10:20:17;;;;;;;1.37;1.30;;;;;;;3.49;88.70;96624.78;5038697;28;20218;-68
2021/12/11 10:22:45;;;;;;;1.07;1.07;;;;;;;3.53;89.12;96620.19;5031920;28;20207;-67
2021/12/11 10:25:15;;;;;;;1.00;1.00;;;;;;;3.60;87.76;96616.22;5019394;28;20211;-68
2021/12/11 10:27:42;;;;;;;1.30;1.03;;;;;;;3.63;88.61;96621.25;5019337;28;20199;-70
2021/12/11 10:30:11;;;;;;;1.00;1.00;;;;;;;3.64;87.48;96620.31;5019163;28;20207;-68
2021/12/11 10:32:39;;;;;;;1.43;1.00;;;;;;;3.65;87.56;96615.94;5035795;28;20203;-67
2021/12/11 10:35:12;;;;;;;1.60;1.50;;;;;;;3.67;87.20;96617.50;5038598;28;20242;-68
2021/12/11 10:37:39;;;;;;;1.20;0.90;;;;;;;3.70;87.74;96621.69;5039672;28;20207;-69
2021/12/11 10:40:10;;;;;;;1.10;1.10;;;;;;;3.71;87.25;96618.97;5038904;28;20211;-69
2021/12/11 10:42:37;;;;;;;0.80;0.80;;;;;;;3.72;87.77;96618.03;5038253;28;20250;-68
2021/12/11 10:45:07;;;;;;;0.90;0.90;;;;;;;3.76;86.71;96629.97;5020254;28;20255;-68
2021/12/11 10:47:37;;;;;;;1.30;1.13;;;;;;;3.79;86.29;96631.56;5041439;28;20202;-69
2021/12/11 10:50:10;;;;;;;1.17;1.17;;;;;;;3.70;86.74;96629.53;5020620;28;20216;-69
2021/12/11 10:52:37;;;;;;;1.60;1.40;;;;;;;3.75;89.18;96633.53;5038132;28;20200;-68
2021/12/11 10:55:07;;;;;;;1.10;1.00;;;;;;;3.82;86.65;96642.66;5035567;28;20646;-67
2021/12/11 10:57:33;;;;;;;0.80;0.80;;;;;;;3.78;86.18;96640.34;5032990;28;20628;-67
2021/12/11 11:00:01;;;;;;;1.00;1.00;;;;;;;3.79;86.84;96640.22;5038329;28;20214;-68
2021/12/11 11:02:30;;;;;;;1.10;1.10;;;;;;;3.81;88.03;96646.19;5035648;28;20211;-71
2021/12/11 11:05:00;;;;;;;1.20;0.90;;;;;;;3.78;87.33;96653.41;5032677;28;20206;-69
2021/12/11 11:07:29;;;;;;;1.00;1.00;;;;;;;3.81;87.23;96651.44;5042085;28;20650;-69
2021/12/11 11:09:58;;;;;;;0.77;0.77;;;;;;;3.94;87.78;96657.50;5038100;28;20230;-70
2021/12/11 11:12:27;;;;;;;1.03;0.97;;;;;;;3.96;87.54;96666.13;5034943;28;20212;-69
2021/12/11 11:14:55;;;;;;;0.90;0.90;;;;;;;4.04;86.86;96677.84;5019804;28;20658;-69
2021/12/11 11:17:25;;;;;;;2.00;1.00;;;;;;;4.04;86.55;96668.19;5020894;28;20254;-68
2021/12/11 11:19:52;;;;;;;1.50;1.00;;;;;;;4.10;86.46;96661.72;5019826;28;20208;-68
2021/12/11 11:22:22;;;;;;;1.37;1.27;;;;;;;4.13;85.67;96671.97;5020515;28;20216;-69
2021/12/11 11:24:53;;;;;;;1.37;1.27;;;;;;;4.11;85.22;96679.09;5025946;28;20211;-68
2021/12/11 11:27:19;;;;;;;1.00;1.00;;;;;;;4.19;86.06;96675.03;5018176;28;20219;-69
2021/12/11 11:29:47;;;;;;;1.40;1.30;;;;;;;4.22;85.92;96681.81;5018136;28;20212;-71
2021/12/11 11:32:18;;;;;;;2.43;2.23;;;;;;;4.30;85.62;96676.91;5031712;28;20589;-69
2021/12/11 11:34:45;;;;;;;1.80;1.27;;;;;;;4.35;85.60;96687.91;5030972;28;20520;-70
2021/12/11 11:37:14;;;;;;;1.63;1.47;;;;;;;4.31;84.58;96675.97;5038985;28;20557;-71
2021/12/11 11:39:41;;;;;;;1.23;1.23;;;;;;;4.19;85.19;96687.25;5043846;28;20192;-69
2021/12/11 11:42:12;;;;;;;1.27;1.17;;;;;;;4.18;86.57;96685.59;5052225;28;20231;-70
2021/12/11 11:44:41;;;;;;;2.53;1.30;;;;;;;4.28;86.03;96699.75;5040444;28;20188;-68
2021/12/11 11:47:08;;;;;;;1.67;1.37;;;;;;;4.36;83.91;96705.28;5038330;28;20631;-68
2021/12/11 11:49:35;;;;;;;2.03;1.50;;;;;;;4.30;84.99;96697.84;5040114;28;20531;-70
2021/12/11 11:52:07;;;;;;;1.13;1.03;;;;;;;4.36;85.24;96705.28;5026709;28;20216;-69
2021/12/11 11:54:35;;;;;;;1.00;0.90;;;;;;;4.47;83.91;96710.63;5017575;28;20229;-68
2021/12/11 11:57:06;;;;;;;1.60;1.33;;;;;;;4.45;83.61;96720.38;5027774;28;20222;-70